Time;durP1;ratioP1;P1;durP2;ratioP2;P2;SDS_P1;SDS_P2;PMS_P1;PMS_P2;Temp;Humidity;BMP_temperature;BMP_pressure;BME280_temperature;BME280_humidity;BME280_pressure;Samples;Min_cycle;Max_cycle;Signal;HPM_P1;HPM_P2
2022/09/27 00:01:22;;;;;;;23.08;15.48;;;;;;;;;;5031223;28;20427;-74
2022/09/27 00:03:47;;;;;;;38.63;21.38;;;;;;;;;;5049018;28;20037;-74
2022/09/27 00:06:22;;;;;;;30.75;20.63;;;;;;;;;;5048499;28;20044;-75
2022/09/27 00:08:47;;;;;;;26.30;17.00;;;;;;;;;;5029918;28;20621;-75
2022/09/27 00:11:19;;;;;;;23.15;17.65;;;;;;;;;;5029405;28;20037;-74
2022/09/27 00:13:45;;;;;;;26.33;18.55;;;;;;;;;;5031114;28;20424;-73
2022/09/27 00:16:11;;;;;;;22.58;16.55;;;;;;;;;;5048477;28;20071;-75
2022/09/27 00:18:37;;;;;;;28.63;19.17;;;;;;;;;;5048788;28;20076;-75
2022/09/27 00:21:03;;;;;;;28.42;19.45;;;;;;;;;;5048281;28;20036;-74
2022/09/27 00:23:29;;;;;;;23.00;17.73;;;;;;;;;;5048716;28;20036;-73
2022/09/27 00:25:56;;;;;;;20.48;16.65;;;;;;;;;;5048349;28;20033;-74
2022/09/27 00:28:22;;;;;;;23.15;17.58;;;;;;;;;;5048621;28;20084;-73
2022/09/27 00:30:48;;;;;;;23.45;17.95;;;;;;;;;;5048448;28;20425;-74
2022/09/27 00:33:14;;;;;;;28.35;18.73;;;;;;;;;;5048369;28;20420;-74
2022/09/27 00:35:40;;;;;;;25.33;16.80;;;;;;;;;;5048540;28;20021;-74
2022/09/27 00:38:06;;;;;;;26.70;17.02;;;;;;;;;;5048132;28;20040;-74
2022/09/27 00:40:32;;;;;;;23.65;16.45;;;;;;;;;;5049384;28;20048;-74
2022/09/27 00:42:58;;;;;;;20.92;16.58;;;;;;;;;;5030519;28;20087;-75
2022/09/27 00:45:24;;;;;;;23.35;16.92;;;;;;;;;;5030691;28;20043;-76
2022/09/27 00:47:51;;;;;;;19.65;15.77;;;;;;;;;;5030666;28;20048;-75
2022/09/27 00:50:20;;;;;;;23.08;15.30;;;;;;;;;;5030332;28;20045;-75
2022/09/27 00:52:48;;;;;;;17.30;14.38;;;;;;;;;;5048507;28;20048;-75
2022/09/27 00:55:16;;;;;;;21.85;15.85;;;;;;;;;;5030185;28;20114;-74
2022/09/27 00:57:42;;;;;;;22.60;16.63;;;;;;;;;;5030625;28;20037;-74
2022/09/27 01:00:09;;;;;;;29.77;20.48;;;;;;;;;;5030148;28;20049;-75
2022/09/27 01:02:36;;;;;;;75.78;27.23;;;;;;;;;;5048428;28;20025;-75
2022/09/27 01:05:02;;;;;;;120.38;41.30;;;;;;;;;;5030152;28;20524;-74
2022/09/27 01:07:28;;;;;;;119.78;35.10;;;;;;;;;;5030714;28;20032;-75
2022/09/27 01:09:54;;;;;;;746.92;53.35;;;;;;;;;;5049055;28;20358;-74
2022/09/27 01:12:26;;;;;;;529.08;39.22;;;;;;;;;;5056961;28;20095;-74
2022/09/27 01:15:11;;;;;;;47.75;19.15;;;;;;;;;;5055245;28;20041;-73
2022/09/27 01:18:07;;;;;;;522.25;35.40;;;;;;;;;;5050682;28;20048;-74
2022/09/27 01:20:36;;;;;;;106.38;20.58;;;;;;;;;;5035208;28;20072;-74
2022/09/27 01:23:05;;;;;;;158.05;20.45;;;;;;;;;;5029910;28;20106;-75
2022/09/27 01:25:50;;;;;;;444.33;30.08;;;;;;;;;;5046825;28;20036;-74
2022/09/27 01:28:39;;;;;;;164.48;15.15;;;;;;;;;;5046675;28;20501;-75
2022/09/27 01:31:11;;;;;;;158.55;16.70;;;;;;;;;;5019934;28;20037;-75
2022/09/27 01:33:42;;;;;;;88.65;19.38;;;;;;;;;;5048241;28;20094;-75
2022/09/27 01:36:41;;;;;;;87.55;20.50;;;;;;;;;;5029897;28;20040;-75
2022/09/27 01:39:20;;;;;;;78.05;18.33;;;;;;;;;;5024457;28;20049;-75
2022/09/27 01:42:20;;;;;;;302.45;28.25;;;;;;;;;;5045153;28;20065;-75
2022/09/27 01:44:51;;;;;;;545.55;39.05;;;;;;;;;;5029633;28;20456;-74
2022/09/27 01:47:21;;;;;;;562.17;39.38;;;;;;;;;;5045996;28;20071;-74
2022/09/27 01:50:10;;;;;;;722.78;45.20;;;;;;;;;;5013658;28;20106;-74
2022/09/27 01:52:43;;;;;;;868.03;47.08;;;;;;;;;;5030108;28;20057;-74
2022/09/27 01:55:09;;;;;;;857.58;49.08;;;;;;;;;;5029666;28;20037;-75
2022/09/27 01:57:52;;;;;;;1071.80;65.32;;;;;;;;;;5028315;28;20565;-75
2022/09/27 02:00:23;;;;;;;197.57;24.75;;;;;;;;;;5029521;28;20049;-76
2022/09/27 02:02:54;;;;;;;146.77;31.60;;;;;;;;;;5049386;28;20029;-74
2022/09/27 02:05:37;;;;;;;95.72;16.98;;;;;;;;;;5051187;28;20099;-75
2022/09/27 02:08:33;;;;;;;20.40;12.57;;;;;;;;;;4973039;28;20046;-74
2022/09/27 02:11:05;;;;;;;36.53;16.85;;;;;;;;;;4997525;28;20044;-75
2022/09/27 02:13:50;;;;;;;15.48;12.02;;;;;;;;;;5013545;28;20401;-76
2022/09/27 02:17:03;;;;;;;26.13;12.95;;;;;;;;;;5016589;28;20037;-77
2022/09/27 02:19:48;;;;;;;15.50;12.60;;;;;;;;;;5016102;28;20567;-76
2022/09/27 02:22:18;;;;;;;16.50;13.07;;;;;;;;;;5033011;28;20139;-76
2022/09/27 02:24:50;;;;;;;14.23;11.43;;;;;;;;;;5032977;28;20127;-75
2022/09/27 02:27:21;;;;;;;15.75;10.45;;;;;;;;;;5016458;28;20144;-75
2022/09/27 02:29:47;;;;;;;;;;;;;;;;;;5016900;28;20132;-75
2022/09/27 02:32:13;;;;;;;13.93;9.80;;;;;;;;;;5032603;28;19912;-77
2022/09/27 02:34:39;;;;;;;12.98;10.73;;;;;;;;;;5033151;28;20041;-77
2022/09/27 02:37:06;;;;;;;12.35;11.15;;;;;;;;;;5053406;28;20068;-75
2022/09/27 02:39:33;;;;;;;13.23;10.55;;;;;;;;;;5034267;28;20501;-77
2022/09/27 02:42:03;;;;;;;20.65;12.95;;;;;;;;;;5032357;28;20086;-77
2022/09/27 02:44:29;;;;;;;13.07;11.70;;;;;;;;;;5032941;28;20044;-76
2022/09/27 02:46:59;;;;;;;17.20;11.93;;;;;;;;;;5032512;28;20033;-76
2022/09/27 02:49:33;;;;;;;14.98;12.10;;;;;;;;;;5032989;28;20061;-76
2022/09/27 02:52:31;;;;;;;66.07;16.30;;;;;;;;;;5032403;28;20048;-76
2022/09/27 02:55:16;;;;;;;61.13;14.63;;;;;;;;;;5032370;28;20029;-76
2022/09/27 02:58:00;;;;;;;98.20;15.52;;;;;;;;;;5023199;28;20533;-76
2022/09/27 03:00:46;;;;;;;33.58;14.70;;;;;;;;;;5008339;28;20076;-76
2022/09/27 03:03:49;;;;;;;680.83;35.33;;;;;;;;;;5032395;28;20048;-76
2022/09/27 03:06:15;;;;;;;943.28;43.20;;;;;;;;;;4998318;28;20033;-79
2022/09/27 03:08:42;;;;;;;189.50;18.50;;;;;;;;;;5015822;28;20036;-77
2022/09/27 03:11:08;;;;;;;337.73;22.67;;;;;;;;;;5015191;28;20036;-77
2022/09/27 03:13:37;;;;;;;44.83;14.55;;;;;;;;;;5032245;28;20112;-77
2022/09/27 03:16:06;;;;;;;18.98;12.60;;;;;;;;;;5031874;28;20097;-77
2022/09/27 03:18:56;;;;;;;43.22;13.90;;;;;;;;;;5019126;28;20040;-78
2022/09/27 03:21:41;;;;;;;24.15;13.90;;;;;;;;;;5032134;28;20036;-77
2022/09/27 03:24:08;;;;;;;22.45;12.73;;;;;;;;;;5031793;28;20065;-77
2022/09/27 03:26:34;;;;;;;27.15;11.25;;;;;;;;;;5031749;28;20036;-77
2022/09/27 03:29:00;;;;;;;25.33;11.20;;;;;;;;;;5015426;28;20036;-77
2022/09/27 03:31:27;;;;;;;19.15;12.25;;;;;;;;;;5031503;28;20033;-77
2022/09/27 03:34:26;;;;;;;1049.78;56.60;;;;;;;;;;5019540;28;20515;-77
2022/09/27 03:36:52;;;;;;;511.58;26.55;;;;;;;;;;5031708;28;20025;-77
2022/09/27 03:39:18;;;;;;;289.42;21.55;;;;;;;;;;5049039;28;20044;-76
2022/09/27 03:41:44;;;;;;;367.85;23.13;;;;;;;;;;5031666;28;20037;-77
2022/09/27 03:44:10;;;;;;;314.88;23.38;;;;;;;;;;5014983;28;20041;-77
2022/09/27 03:46:36;;;;;;;977.03;47.25;;;;;;;;;;5031431;28;20037;-77
2022/09/27 03:49:02;;;;;;;569.55;34.03;;;;;;;;;;5049219;28;20045;-79
2022/09/27 03:51:28;;;;;;;668.92;32.55;;;;;;;;;;5049322;28;20037;-78
2022/09/27 03:53:54;;;;;;;287.38;20.00;;;;;;;;;;5031567;28;20041;-78
2022/09/27 03:56:20;;;;;;;462.50;30.45;;;;;;;;;;5030958;28;20043;-76
2022/09/27 03:58:47;;;;;;;341.50;27.85;;;;;;;;;;5048906;28;20048;-76
2022/09/27 04:01:14;;;;;;;249.45;19.00;;;;;;;;;;5014622;28;20041;-77
2022/09/27 04:03:41;;;;;;;217.27;21.08;;;;;;;;;;5031253;28;20404;-77
2022/09/27 04:06:25;;;;;;;524.03;33.80;;;;;;;;;;5047632;28;20036;-76
2022/09/27 04:08:52;;;;;;;415.50;30.45;;;;;;;;;;5026854;28;20579;-76
2022/09/27 04:11:22;;;;;;;208.50;20.95;;;;;;;;;;5027793;28;20047;-75
2022/09/27 04:13:48;;;;;;;233.15;18.35;;;;;;;;;;5048788;28;20055;-76
2022/09/27 04:16:15;;;;;;;182.10;20.98;;;;;;;;;;5030657;28;20044;-76
2022/09/27 04:19:13;;;;;;;64.57;13.55;;;;;;;;;;5023196;28;20049;-77
2022/09/27 04:21:39;;;;;;;11.98;9.73;;;;;;;;;;5014562;28;20039;-77
2022/09/27 04:24:06;;;;;;;98.70;15.60;;;;;;;;;;5030981;28;20064;-75
2022/09/27 04:26:34;;;;;;;154.07;14.48;;;;;;;;;;5029242;28;20432;-77
2022/09/27 04:29:01;;;;;;;45.65;11.30;;;;;;;;;;5012796;28;20075;-78
2022/09/27 04:31:28;;;;;;;52.33;10.07;;;;;;;;;;5029559;28;20065;-79
2022/09/27 04:34:14;;;;;;;97.53;13.73;;;;;;;;;;5013222;28;20049;-78
2022/09/27 04:36:40;;;;;;;140.10;14.15;;;;;;;;;;5013511;28;20451;-79
2022/09/27 04:39:07;;;;;;;158.57;17.55;;;;;;;;;;5046546;28;20037;-78
2022/09/27 04:41:36;;;;;;;77.40;15.07;;;;;;;;;;5010848;28;20071;-79
2022/09/27 04:44:02;;;;;;;131.00;18.83;;;;;;;;;;5048305;28;20090;-78
2022/09/27 04:46:31;;;;;;;136.68;14.70;;;;;;;;;;5013710;28;20033;-79
2022/09/27 04:48:58;;;;;;;122.50;14.65;;;;;;;;;;5030515;28;20114;-75
2022/09/27 04:51:24;;;;;;;251.48;22.30;;;;;;;;;;5013793;28;20517;-76
2022/09/27 04:53:51;;;;;;;163.23;15.50;;;;;;;;;;5014224;28;20064;-77
2022/09/27 04:56:18;;;;;;;51.83;10.98;;;;;;;;;;5013938;28;20123;-76
2022/09/27 04:58:44;;;;;;;38.47;9.15;;;;;;;;;;5027075;28;20060;-75
2022/09/27 05:01:10;;;;;;;11.02;7.88;;;;;;;;;;5027910;28;20481;-76
2022/09/27 05:03:55;;;;;;;70.70;33.45;;;;;;;;;;5046688;28;20033;-75
2022/09/27 05:06:22;;;;;;;62.25;21.88;;;;;;;;;;5013194;28;20153;-75
2022/09/27 05:08:48;;;;;;;42.20;11.27;;;;;;;;;;5030622;28;20048;-76
2022/09/27 05:11:17;;;;;;;47.97;16.45;;;;;;;;;;5048753;28;20082;-76
2022/09/27 05:14:03;;;;;;;61.10;14.85;;;;;;;;;;5048073;28;20041;-76
2022/09/27 05:16:32;;;;;;;20.45;10.13;;;;;;;;;;5044715;28;20037;-76
2022/09/27 05:19:18;;;;;;;18.45;9.40;;;;;;;;;;5067518;28;20552;-77
2022/09/27 05:22:07;;;;;;;18.92;8.73;;;;;;;;;;5067607;28;20132;-77
2022/09/27 05:24:34;;;;;;;10.48;8.18;;;;;;;;;;5055987;28;20409;-77
2022/09/27 05:27:00;;;;;;;17.73;8.48;;;;;;;;;;5030787;28;20047;-76
2022/09/27 05:29:26;;;;;;;14.57;8.43;;;;;;;;;;5030761;28;20045;-77
2022/09/27 05:32:07;;;;;;;7.82;7.13;;;;;;;;;;5022326;28;20035;-75
2022/09/27 05:34:33;;;;;;;8.23;7.30;;;;;;;;;;5049216;28;20123;-82
2022/09/27 05:36:59;;;;;;;24.33;6.50;;;;;;;;;;5052458;28;20051;-85
2022/09/27 05:39:26;;;;;;;20.65;6.93;;;;;;;;;;5055895;28;20405;-84
2022/09/27 05:41:54;;;;;;;53.53;7.93;;;;;;;;;;5068759;28;20036;-85
2022/09/27 05:44:20;;;;;;;23.00;7.00;;;;;;;;;;5026238;28;20814;-83
2022/09/27 05:46:56;;;;;;;31.88;7.28;;;;;;;;;;5039792;28;20043;-83
2022/09/27 05:49:22;;;;;;;21.65;6.35;;;;;;;;;;5020830;28;20056;-83
2022/09/27 05:51:48;;;;;;;12.45;7.88;;;;;;;;;;5037298;28;20055;-83
2022/09/27 05:54:14;;;;;;;5.85;5.40;;;;;;;;;;5040238;28;20505;-84
2022/09/27 05:56:41;;;;;;;5.55;5.13;;;;;;;;;;5041550;28;20115;-85
2022/09/27 05:59:12;;;;;;;5.38;4.97;;;;;;;;;;5071478;28;20041;-85
2022/09/27 06:01:58;;;;;;;5.95;5.43;;;;;;;;;;5040651;28;20471;-79
2022/09/27 06:04:40;;;;;;;6.40;5.85;;;;;;;;;;5050861;28;20060;-77
2022/09/27 06:07:24;;;;;;;6.47;5.97;;;;;;;;;;5024007;28;20047;-77
2022/09/27 06:09:50;;;;;;;10.50;5.75;;;;;;;;;;5036459;28;20076;-82
2022/09/27 06:12:18;;;;;;;25.08;6.35;;;;;;;;;;5058177;28;20361;-82
2022/09/27 06:14:44;;;;;;;11.07;6.10;;;;;;;;;;5061697;28;20040;-84
2022/09/27 06:17:16;;;;;;;12.23;6.25;;;;;;;;;;5042291;28;20501;-80
2022/09/27 06:19:43;;;;;;;6.78;6.28;;;;;;;;;;5019910;28;20049;-82
2022/09/27 06:22:11;;;;;;;19.42;6.57;;;;;;;;;;5049916;28;20518;-81
2022/09/27 06:24:47;;;;;;;33.67;8.32;;;;;;;;;;5042953;28;20519;-84
2022/09/27 06:27:20;;;;;;;16.60;7.25;;;;;;;;;;5047728;28;20422;-82
2022/09/27 06:29:59;;;;;;;19.45;7.45;;;;;;;;;;5066447;28;20036;-80
2022/09/27 06:32:45;;;;;;;11.57;7.53;;;;;;;;;;5059139;28;20098;-81
2022/09/27 06:35:29;;;;;;;12.50;8.70;;;;;;;;;;5057551;28;20546;-81
2022/09/27 06:37:56;;;;;;;11.75;9.07;;;;;;;;;;5040971;28;20033;-81
2022/09/27 06:40:25;;;;;;;21.30;8.82;;;;;;;;;;5057778;28;20402;-82
2022/09/27 06:43:10;;;;;;;19.08;9.05;;;;;;;;;;5059156;28;20070;-82
2022/09/27 06:46:01;;;;;;;47.97;10.00;;;;;;;;;;5074789;28;20056;-83
2022/09/27 06:48:41;;;;;;;11.57;8.75;;;;;;;;;;5058673;28;20056;-83
2022/09/27 06:51:14;;;;;;;11.68;8.65;;;;;;;;;;5076089;28;20143;-81
2022/09/27 06:53:41;;;;;;;15.73;8.07;;;;;;;;;;5058998;28;20051;-84
2022/09/27 06:56:08;;;;;;;8.18;7.00;;;;;;;;;;5057874;28;20029;-84
2022/09/27 07:01:41;;;;;;;7.57;6.88;;;;;;;;;;5055490;28;20033;-85
2022/09/27 07:04:26;;;;;;;7.55;6.55;;;;;;;;;;5056443;28;20037;-83
2022/09/27 07:07:16;;;;;;;11.30;5.72;;;;;;;;;;5055563;28;20497;-83
2022/09/27 07:09:46;;;;;;;6.78;5.07;;;;;;;;;;5042005;28;20081;-85
2022/09/27 07:12:12;;;;;;;8.88;3.75;;;;;;;;;;5035051;28;20045;-81
2022/09/27 07:14:39;;;;;;;5.40;4.43;;;;;;;;;;5038477;28;20047;-86
2022/09/27 07:17:06;;;;;;;9.35;3.45;;;;;;;;;;5054729;28;20025;-85
2022/09/27 07:19:36;;;;;;;2.13;1.50;;;;;;;;;;5052700;28;20032;-87
2022/09/27 07:22:02;;;;;;;2.95;2.78;;;;;;;;;;5034392;28;20043;-83
2022/09/27 07:24:29;;;;;;;4.80;4.50;;;;;;;;;;5046901;28;20037;-84
2022/09/27 07:26:55;;;;;;;5.70;4.38;;;;;;;;;;5045183;28;20025;-88
2022/09/27 07:29:21;;;;;;;5.00;4.00;;;;;;;;;;5058171;28;20041;-85
2022/09/27 07:31:51;;;;;;;6.13;5.40;;;;;;;;;;5057952;28;20193;-86
2022/09/27 07:34:17;;;;;;;4.57;4.18;;;;;;;;;;5060228;28;20212;-84
2022/09/27 07:36:44;;;;;;;4.10;3.90;;;;;;;;;;5000887;28;20333;-81
2022/09/27 07:39:10;;;;;;;4.35;4.05;;;;;;;;;;5032496;28;20041;-76
2022/09/27 07:41:39;;;;;;;5.15;4.85;;;;;;;;;;5042274;28;20127;-75
2022/09/27 07:44:07;;;;;;;3.60;3.30;;;;;;;;;;5055855;28;20033;-75
2022/09/27 07:46:39;;;;;;;3.72;3.53;;;;;;;;;;5048245;28;20787;-74
2022/09/27 07:49:28;;;;;;;6.00;5.35;;;;;;;;;;5048620;28;20048;-74
2022/09/27 07:52:01;;;;;;;5.18;4.78;;;;;;;;;;5049556;28;20475;-75
2022/09/27 07:54:53;;;;;;;4.88;4.57;;;;;;;;;;5026362;28;20060;-75
2022/09/27 07:57:34;;;;;;;4.72;4.20;;;;;;;;;;5029842;28;20174;-76
2022/09/27 08:00:02;;;;;;;6.00;5.50;;;;;;;;;;5013436;28;20049;-77
2022/09/27 08:02:39;;;;;;;4.35;3.90;;;;;;;;;;5030898;28;20032;-78
2022/09/27 08:05:06;;;;;;;3.72;3.42;;;;;;;;;;5039034;28;20052;-76
2022/09/27 08:07:32;;;;;;;2.53;2.33;;;;;;;;;;5050053;28;20043;-75
2022/09/27 08:09:59;;;;;;;2.20;2.08;;;;;;;;;;5050111;28;20041;-74
2022/09/27 08:12:25;;;;;;;3.75;3.08;;;;;;;;;;5029541;28;20060;-75
2022/09/27 08:14:51;;;;;;;3.38;3.08;;;;;;;;;;5029766;28;20094;-75
2022/09/27 08:17:18;;;;;;;2.95;2.42;;;;;;;;;;5013021;28;20041;-75
2022/09/27 08:20:16;;;;;;;5.35;2.08;;;;;;;;;;5039252;28;20440;-77
2022/09/27 08:23:11;;;;;;;3.97;3.58;;;;;;;;;;4975778;28;20533;-74
2022/09/27 08:25:41;;;;;;;;;;;;;;;;;;5048691;28;20511;-75
2022/09/27 08:28:29;;;;;;;5.28;4.78;;;;;;;;;;5029032;28;19912;-78
2022/09/27 08:31:12;;;;;;;4.65;4.20;;;;;;;;;;5017368;28;20032;-77
2022/09/27 08:33:39;;;;;;;9.25;4.20;;;;;;;;;;5029243;28;20041;-74
2022/09/27 08:36:11;;;;;;;7.80;5.05;;;;;;;;;;5032145;28;20227;-75
2022/09/27 08:38:37;;;;;;;7.43;4.95;;;;;;;;;;5067338;28;20108;-75
2022/09/27 08:41:16;;;;;;;4.82;4.43;;;;;;;;;;5049446;28;20586;-75
2022/09/27 08:43:51;;;;;;;5.35;4.85;;;;;;;;;;5049522;28;20056;-74
2022/09/27 08:46:18;;;;;;;3.75;3.45;;;;;;;;;;5047027;28;20033;-77
2022/09/27 08:48:46;;;;;;;6.80;4.50;;;;;;;;;;5012600;28;20052;-78
2022/09/27 08:51:14;;;;;;;5.82;4.40;;;;;;;;;;5012602;28;20041;-78
2022/09/27 08:53:42;;;;;;;3.80;3.08;;;;;;;;;;5001718;28;20056;-76
2022/09/27 08:56:08;;;;;;;5.97;4.13;;;;;;;;;;5044628;28;20051;-77
2022/09/27 08:58:47;;;;;;;6.38;5.30;;;;;;;;;;5038047;28;20044;-75
2022/09/27 09:01:20;;;;;;;5.43;4.55;;;;;;;;;;5045593;28;20109;-75
2022/09/27 09:04:09;;;;;;;4.97;4.57;;;;;;;;;;5041405;28;20102;-76
2022/09/27 09:06:40;;;;;;;4.68;4.28;;;;;;;;;;5027946;28;20033;-76
2022/09/27 09:09:12;;;;;;;6.28;4.82;;;;;;;;;;5046453;28;20033;-77
2022/09/27 09:14:45;;;;;;;4.72;4.18;;;;;;;;;;5033182;28;20036;-78
2022/09/27 09:17:49;;;;;;;4.85;4.40;;;;;;;;;;5016380;28;20047;-76
2022/09/27 09:20:35;;;;;;;4.85;4.45;;;;;;;;;;4958126;28;20042;-77
2022/09/27 09:23:07;;;;;;;6.20;3.85;;;;;;;;;;4958569;28;20705;-77
2022/09/27 09:26:02;;;;;;;4.95;3.50;;;;;;;;;;4996798;28;20049;-77
2022/09/27 09:28:48;;;;;;;4.25;3.88;;;;;;;;;;5021613;28;20051;-76
2022/09/27 09:31:14;;;;;;;4.90;4.43;;;;;;;;;;5044866;28;20048;-77
2022/09/27 09:33:52;;;;;;;3.65;3.35;;;;;;;;;;5043891;28;20039;-75
2022/09/27 09:36:21;;;;;;;5.13;4.70;;;;;;;;;;5030751;28;20047;-76
2022/09/27 09:38:48;;;;;;;5.35;4.88;;;;;;;;;;5033640;28;20413;-76
2022/09/27 09:41:15;;;;;;;4.93;4.55;;;;;;;;;;5032839;28;20044;-75
2022/09/27 09:43:47;;;;;;;3.92;3.63;;;;;;;;;;5033061;28;20029;-75
2022/09/27 09:46:16;;;;;;;3.88;3.58;;;;;;;;;;5048664;28;20539;-75
2022/09/27 09:48:43;;;;;;;3.35;3.15;;;;;;;;;;5032454;28;20115;-76
2022/09/27 09:51:21;;;;;;;3.00;2.80;;;;;;;;;;5032127;28;20041;-76
2022/09/27 09:53:53;;;;;;;3.50;3.20;;;;;;;;;;5013248;28;20037;-75
2022/09/27 09:56:32;;;;;;;3.17;2.97;;;;;;;;;;5014176;28;20477;-76
2022/09/27 09:59:00;;;;;;;3.33;2.90;;;;;;;;;;5012635;28;20068;-76
2022/09/27 10:01:35;;;;;;;3.67;3.47;;;;;;;;;;5028591;28;20053;-76
2022/09/27 10:04:01;;;;;;;3.25;3.00;;;;;;;;;;5012732;28;20425;-76
2022/09/27 10:06:27;;;;;;;3.17;2.97;;;;;;;;;;5012023;28;20531;-75
2022/09/27 10:08:54;;;;;;;5.40;3.20;;;;;;;;;;5024510;28;20079;-78
2022/09/27 10:11:38;;;;;;;3.05;2.85;;;;;;;;;;5032169;28;20036;-79
2022/09/27 10:14:27;;;;;;;3.35;2.50;;;;;;;;;;5049750;28;20045;-77
2022/09/27 10:16:58;;;;;;;3.92;2.45;;;;;;;;;;5048735;28;20424;-76
2022/09/27 10:19:26;;;;;;;2.90;2.40;;;;;;;;;;5031452;28;20055;-75
2022/09/27 10:21:52;;;;;;;4.40;3.10;;;;;;;;;;5008871;28;20115;-81
2022/09/27 10:24:18;;;;;;;2.53;2.33;;;;;;;;;;5030894;28;20028;-80
2022/09/27 10:27:02;;;;;;;2.08;1.92;;;;;;;;;;5034845;28;20200;-78
2022/09/27 10:29:32;;;;;;;1.67;1.58;;;;;;;;;;5047974;28;20029;-79
2022/09/27 10:31:58;;;;;;;1.23;1.23;;;;;;;;;;5028546;28;20132;-79
2022/09/27 10:34:36;;;;;;;1.70;1.60;;;;;;;;;;5028590;28;20033;-78
2022/09/27 10:37:22;;;;;;;1.90;1.80;;;;;;;;;;4996845;28;20040;-80
2022/09/27 10:40:24;;;;;;;1.98;1.88;;;;;;;;;;5029652;28;20052;-81
2022/09/27 10:42:50;;;;;;;1.85;1.75;;;;;;;;;;5016124;28;20507;-78
2022/09/27 10:45:21;;;;;;;1.30;1.30;;;;;;;;;;5032253;28;20037;-76
2022/09/27 10:47:55;;;;;;;5.35;2.10;;;;;;;;;;5032969;28;20040;-76
2022/09/27 10:50:30;;;;;;;1.90;1.80;;;;;;;;;;5016478;28;20040;-77
2022/09/27 10:53:11;;;;;;;2.00;1.90;;;;;;;;;;5032435;28;20051;-77
2022/09/27 10:55:38;;;;;;;2.38;2.13;;;;;;;;;;5032507;28;20124;-78
2022/09/27 10:58:05;;;;;;;2.13;2.03;;;;;;;;;;5032483;28;20040;-79
2022/09/27 11:00:31;;;;;;;6.68;2.40;;;;;;;;;;5015508;28;20479;-77
2022/09/27 11:03:03;;;;;;;2.38;2.10;;;;;;;;;;5032037;28;20431;-78
2022/09/27 11:05:32;;;;;;;2.53;2.40;;;;;;;;;;5015931;28;20449;-77
2022/09/27 11:08:01;;;;;;;2.42;2.30;;;;;;;;;;5015848;28;20468;-78
2022/09/27 11:10:44;;;;;;;5.65;2.95;;;;;;;;;;5018312;28;20029;-78
2022/09/27 11:13:14;;;;;;;5.68;2.88;;;;;;;;;;5032059;28;20143;-78
2022/09/27 11:15:47;;;;;;;3.13;2.92;;;;;;;;;;5031986;28;20693;-78
2022/09/27 11:18:20;;;;;;;4.65;3.30;;;;;;;;;;5015168;28;20584;-80
2022/09/27 11:21:06;;;;;;;3.42;3.13;;;;;;;;;;5015834;28;20075;-79
2022/09/27 11:23:39;;;;;;;2.78;2.65;;;;;;;;;;5001534;28;20044;-79
2022/09/27 11:26:13;;;;;;;3.60;3.28;;;;;;;;;;5049205;28;20037;-79
2022/09/27 11:28:43;;;;;;;4.75;4.35;;;;;;;;;;5049463;28;20040;-78
2022/09/27 11:31:19;;;;;;;5.75;3.92;;;;;;;;;;5016019;28;20032;-83
2022/09/27 21:06:16;;;;;;;7.15;4.80;;;;;;;;;;5023818;28;20112;-74
2022/09/27 21:08:42;;;;;;;5.63;5.22;;;;;;;;;;5029856;28;20124;-73
2022/09/27 21:11:12;;;;;;;5.50;5.10;;;;;;;;;;5031358;28;20128;-73
2022/09/27 21:13:38;;;;;;;4.97;4.67;;;;;;;;;;5008971;28;20115;-74
2022/09/27 21:16:04;;;;;;;5.28;4.70;;;;;;;;;;5023240;28;20045;-86
2022/09/27 21:18:30;;;;;;;5.03;4.70;;;;;;;;;;5003986;28;20429;-89
2022/09/27 21:20:57;;;;;;;4.80;4.50;;;;;;;;;;5023962;28;20053;-89
2022/09/27 21:23:23;;;;;;;4.90;4.45;;;;;;;;;;5023783;28;20049;-86
2022/09/27 21:25:50;;;;;;;4.13;3.83;;;;;;;;;;5002615;28;20037;-86
2022/09/27 21:28:16;;;;;;;3.95;3.65;;;;;;;;;;5035701;28;20417;-83
2022/09/27 21:41:45;;;;;;;4.07;3.78;;;;;;;;;;5030950;28;20057;-83
2022/09/27 21:44:11;;;;;;;3.58;3.35;;;;;;;;;;5018751;28;20038;-84
2022/09/27 21:46:38;;;;;;;3.33;3.13;;;;;;;;;;5017137;28;20171;-83
2022/09/27 21:49:03;;;;;;;3.75;3.45;;;;;;;;;;5034862;28;20161;-84
2022/09/27 21:51:31;;;;;;;4.75;3.80;;;;;;;;;;5016977;28;20120;-84
2022/09/27 21:54:00;;;;;;;4.20;3.80;;;;;;;;;;5003031;28;20038;-85
2022/09/27 21:56:29;;;;;;;4.13;3.80;;;;;;;;;;5036524;28;20037;-83
2022/09/27 21:58:54;;;;;;;3.85;3.65;;;;;;;;;;5035844;28;20409;-84
2022/09/27 22:01:21;;;;;;;8.45;3.70;;;;;;;;;;5019863;28;20107;-84
2022/09/27 22:03:47;;;;;;;4.10;3.70;;;;;;;;;;5030663;28;20316;-85
2022/09/27 22:06:17;;;;;;;3.67;3.30;;;;;;;;;;5037325;28;20049;-86
2022/09/27 22:08:43;;;;;;;3.85;3.65;;;;;;;;;;5004929;28;20520;-85
2022/09/27 22:11:09;;;;;;;4.13;3.83;;;;;;;;;;5008858;28;20224;-86
2022/09/27 22:13:35;;;;;;;4.38;4.07;;;;;;;;;;5027261;28;20042;-83
2022/09/27 22:16:05;;;;;;;4.10;3.80;;;;;;;;;;5003350;28;20567;-82
2022/09/27 22:18:33;;;;;;;7.05;4.10;;;;;;;;;;5031899;28;20045;-83
2022/09/27 22:21:02;;;;;;;4.30;4.03;;;;;;;;;;5016172;28;20049;-82
2022/09/27 22:23:29;;;;;;;4.95;4.43;;;;;;;;;;4996645;28;20096;-83
2022/09/27 22:25:55;;;;;;;4.80;4.40;;;;;;;;;;5034282;28;20045;-83
2022/09/27 22:28:21;;;;;;;5.40;4.97;;;;;;;;;;4997399;28;20058;-83
2022/09/27 22:30:47;;;;;;;6.07;5.43;;;;;;;;;;5033019;28;20571;-83
2022/09/27 22:33:13;;;;;;;6.07;5.57;;;;;;;;;;5007440;28;20037;-86
2022/09/27 22:35:45;;;;;;;5.47;5.03;;;;;;;;;;5044559;28;20067;-83
2022/09/27 22:38:11;;;;;;;6.15;5.47;;;;;;;;;;5046651;28;20480;-85
2022/09/27 22:40:36;;;;;;;6.28;5.75;;;;;;;;;;5051328;28;20308;-84
2022/09/27 22:43:02;;;;;;;7.45;6.75;;;;;;;;;;5023727;28;20092;-86
2022/09/27 22:45:28;;;;;;;8.10;7.50;;;;;;;;;;5037333;28;20045;-85
2022/09/27 22:47:54;;;;;;;6.78;6.18;;;;;;;;;;5042541;28;20930;-86
2022/09/27 22:50:20;;;;;;;7.55;6.93;;;;;;;;;;5049199;28;20055;-87
2022/09/27 22:52:45;;;;;;;7.13;6.60;;;;;;;;;;5054518;28;20037;-83
2022/09/27 22:55:12;;;;;;;8.35;7.75;;;;;;;;;;5019712;28;20045;-84
2022/09/27 22:57:38;;;;;;;7.72;7.00;;;;;;;;;;5027097;28;20505;-84
2022/09/27 23:00:05;;;;;;;7.25;6.68;;;;;;;;;;5007475;28;20181;-84
2022/09/27 23:02:31;;;;;;;8.52;7.32;;;;;;;;;;5027413;28;20034;-84
2022/09/27 23:04:56;;;;;;;7.72;7.03;;;;;;;;;;5019881;28;20071;-84
2022/09/27 23:07:22;;;;;;;8.43;7.63;;;;;;;;;;5022993;28;20045;-84
2022/09/27 23:09:48;;;;;;;9.05;8.25;;;;;;;;;;5030749;28;20086;-82
2022/09/27 23:12:14;;;;;;;7.78;7.07;;;;;;;;;;5030848;28;20033;-82
2022/09/27 23:14:40;;;;;;;9.13;8.52;;;;;;;;;;5031634;28;20128;-82
2022/09/27 23:17:06;;;;;;;7.88;7.38;;;;;;;;;;5013014;28;20161;-81
2022/09/27 23:19:34;;;;;;;6.72;6.05;;;;;;;;;;5012756;28;20140;-81
2022/09/27 23:22:00;;;;;;;7.13;6.53;;;;;;;;;;5011960;28;20324;-80
2022/09/27 23:24:26;;;;;;;9.38;7.60;;;;;;;;;;5011523;28;20119;-81
2022/09/27 23:27:40;;;;;;;8.07;7.38;;;;;;;;;;5029178;28;20048;-81
2022/09/27 23:29:37;;;;;;;7.82;7.03;;;;;;;;;;5014170;28;20041;-80
2022/09/27 23:32:03;;;;;;;9.38;8.68;;;;;;;;;;5011603;28;20041;-80
2022/09/27 23:34:30;;;;;;;7.95;7.15;;;;;;;;;;5011581;28;20045;-80
2022/09/27 23:36:56;;;;;;;8.75;7.85;;;;;;;;;;5016408;28;20048;-83
2022/09/27 23:39:22;;;;;;;8.13;7.43;;;;;;;;;;5017252;28;20045;-82
2022/09/27 23:41:48;;;;;;;8.85;8.25;;;;;;;;;;4998547;28;20076;-83
2022/09/27 23:44:14;;;;;;;7.25;6.03;;;;;;;;;;5016888;28;20045;-83
2022/09/27 23:46:40;;;;;;;7.80;7.10;;;;;;;;;;5032878;28;20053;-83
2022/09/27 23:49:06;;;;;;;8.68;7.97;;;;;;;;;;5011945;28;20045;-81
2022/09/27 23:51:32;;;;;;;7.78;7.13;;;;;;;;;;5030106;28;20517;-82
2022/09/27 23:53:59;;;;;;;8.93;8.35;;;;;;;;;;5013674;28;20038;-83
2022/09/27 23:56:25;;;;;;;7.35;6.75;;;;;;;;;;5014296;28;20056;-80
2022/09/27 23:58:51;;;;;;;8.18;7.45;;;;;;;;;;5016977;28;20065;-83
